createdAt,value
2019-03-27T00:02:25.219Z,32
2019-03-27T00:07:25.242Z,31
2019-03-27T00:12:25.243Z,31
2019-03-27T00:17:25.222Z,32
2019-03-27T00:22:25.249Z,33
2019-03-27T00:27:25.193Z,33
2019-03-27T00:32:25.211Z,32
2019-03-27T00:37:25.180Z,31
2019-03-27T00:42:25.203Z,31
2019-03-27T00:47:25.190Z,32
2019-03-27T00:52:25.162Z,30
2019-03-27T00:57:25.216Z,30
2019-03-27T01:02:25.156Z,33
2019-03-27T01:07:25.148Z,31
2019-03-27T01:12:25.149Z,30
2019-03-27T01:17:25.129Z,32
2019-03-27T01:22:25.160Z,29
2019-03-27T01:27:25.149Z,29
2019-03-27T01:32:25.150Z,27
2019-03-27T01:37:25.107Z,28
2019-03-27T01:42:25.148Z,28
2019-03-27T01:47:25.112Z,25
2019-03-27T01:52:25.083Z,22
2019-03-27T01:57:25.086Z,24
2019-03-27T02:02:25.100Z,23
2019-03-27T02:07:25.127Z,23
2019-03-27T02:12:25.088Z,21
2019-03-27T02:17:25.141Z,25
2019-03-27T02:22:25.090Z,23
2019-03-27T02:27:25.051Z,21
2019-03-27T02:32:25.083Z,22
2019-03-27T02:37:25.070Z,25
2019-03-27T02:42:25.056Z,19
2019-03-27T02:47:25.119Z,20
2019-03-27T02:52:25.078Z,22
2019-03-27T02:57:25.024Z,23
2019-03-27T03:02:25.045Z,17
2019-03-27T03:07:25.032Z,19
2019-03-27T03:12:25.049Z,18
2019-03-27T03:17:25.026Z,19
2019-03-27T03:22:25.038Z,15
2019-03-27T03:27:25.028Z,14
2019-03-27T03:32:25.001Z,14
2019-03-27T03:37:25.012Z,11
2019-03-27T03:42:24.998Z,13
2019-03-27T03:47:25.003Z,10
2019-03-27T03:52:25.015Z,12
2019-03-27T03:57:24.949Z,11
2019-03-27T04:02:24.985Z,9
2019-03-27T04:07:24.982Z,7
2019-03-27T04:12:24.943Z,6
2019-03-27T04:17:24.963Z,5
2019-03-27T04:22:24.963Z,5
2019-03-27T05:36:37.410Z,8
2019-03-27T05:41:37.424Z,8
2019-03-27T05:46:37.409Z,6
2019-03-27T05:51:37.360Z,5
2019-03-27T05:56:37.416Z,6
2019-03-27T06:01:37.384Z,5
2019-03-27T07:18:40.596Z,5
2019-03-27T07:37:03.734Z,6
2019-03-27T07:42:03.678Z,7
2019-03-27T07:47:03.729Z,6
2019-03-27T07:52:03.744Z,8
2019-03-27T07:57:03.671Z,7
2019-03-27T08:02:03.645Z,9
2019-03-27T08:07:03.671Z,10
2019-03-27T08:12:03.690Z,10
2019-03-27T08:17:03.653Z,8
2019-03-27T08:22:03.672Z,10
2019-03-27T08:27:03.638Z,12
2019-03-27T08:32:03.639Z,11
2019-03-27T08:37:03.635Z,9
2019-03-27T08:42:03.651Z,10
2019-03-27T08:47:03.596Z,10
2019-03-27T08:52:03.659Z,12
2019-03-27T08:57:03.599Z,11
2019-03-27T09:02:03.954Z,10
2019-03-27T09:07:03.594Z,10
2019-03-27T09:12:04.901Z,10
2019-03-27T09:17:04.800Z,9
2019-03-27T09:22:03.577Z,8
2019-03-27T09:27:05.048Z,9
2019-03-27T09:32:03.533Z,10
2019-03-27T09:37:03.587Z,9
2019-03-27T09:42:04.633Z,10
2019-03-27T09:47:03.549Z,9
2019-03-27T09:52:03.524Z,11
2019-03-27T09:57:03.528Z,10
2019-03-27T10:02:03.562Z,12
2019-03-27T10:07:03.535Z,11
2019-03-27T10:12:03.532Z,10
2019-03-27T10:17:03.507Z,13
2019-03-27T10:22:03.525Z,13
2019-03-27T10:27:03.518Z,13
2019-03-27T10:32:03.479Z,12
2019-03-27T10:37:03.489Z,14
2019-03-27T10:42:03.519Z,14
2019-03-27T10:47:03.537Z,13
2019-03-27T10:52:03.490Z,15
2019-03-27T10:57:03.511Z,16
2019-03-27T11:02:03.503Z,15
2019-03-27T11:07:03.449Z,16
2019-03-27T11:12:03.458Z,19
2019-03-27T11:17:03.455Z,18
2019-03-27T11:22:03.441Z,19
2019-03-27T11:27:03.453Z,22
2019-03-27T11:32:03.463Z,22
2019-03-27T11:37:03.451Z,28
2019-03-27T11:42:03.423Z,25
2019-03-27T11:47:03.460Z,26
2019-03-27T11:52:03.414Z,26
2019-03-27T11:57:03.396Z,26
2019-03-27T12:02:03.395Z,28
2019-03-27T12:07:03.403Z,29
2019-03-27T12:12:03.374Z,26
2019-03-27T12:17:03.402Z,27
2019-03-27T12:22:03.387Z,30
2019-03-27T12:27:03.381Z,29
2019-03-27T12:32:03.351Z,27
2019-03-27T12:37:03.341Z,29
2019-03-27T12:42:03.385Z,30
2019-03-27T12:47:03.356Z,30
2019-03-27T12:52:05.712Z,29
2019-03-27T12:57:03.353Z,30
2019-03-27T13:02:03.326Z,30
2019-03-27T13:07:03.362Z,31
2019-03-27T13:12:03.311Z,30
2019-03-27T13:17:03.350Z,30
2019-03-27T13:22:03.340Z,30
2019-03-27T13:27:03.326Z,23
2019-03-27T13:32:03.371Z,27
2019-03-27T13:37:03.313Z,26
2019-03-27T13:42:03.292Z,29
2019-03-27T13:47:03.576Z,29
2019-03-27T13:52:03.299Z,28
2019-03-27T13:57:03.303Z,28
2019-03-27T14:02:03.296Z,26
2019-03-27T14:07:03.294Z,28
2019-03-27T14:12:03.271Z,30
2019-03-27T14:17:03.257Z,26
2019-03-27T14:22:03.308Z,28
2019-03-27T14:27:03.270Z,24
2019-03-27T14:32:03.230Z,27
2019-03-27T14:37:03.317Z,25
2019-03-27T14:42:03.235Z,20
2019-03-27T14:47:03.208Z,23
2019-03-27T14:57:08.440Z,19
2019-03-27T15:02:08.376Z,17
2019-03-27T15:07:08.319Z,15
2019-03-27T15:12:08.290Z,18
2019-03-27T15:17:08.301Z,15
2019-03-27T15:22:22.822Z,15
2019-03-27T15:27:08.244Z,14
2019-03-27T15:32:08.266Z,13
2019-03-27T15:37:08.246Z,14
2019-03-27T15:42:09.436Z,16
2019-03-27T15:47:08.242Z,12
2019-03-27T15:52:08.284Z,13
2019-03-27T15:57:08.245Z,15
2019-03-27T16:02:08.266Z,16
2019-03-27T16:07:08.205Z,16
2019-03-27T16:12:08.202Z,16
2019-03-27T16:17:14.242Z,16
2019-03-27T16:22:08.211Z,17
2019-03-27T16:27:14.425Z,16
2019-03-27T16:32:14.389Z,17
2019-03-27T16:37:16.017Z,20
2019-03-27T16:42:15.505Z,16
2019-03-27T16:47:14.387Z,16
2019-03-27T16:52:14.418Z,18
2019-03-27T16:57:18.255Z,17
2019-03-27T17:02:43.818Z,17
2019-03-27T17:07:43.727Z,17
2019-03-27T17:12:43.741Z,18
2019-03-27T17:17:43.698Z,19
2019-03-27T17:22:43.654Z,17
2019-03-27T17:27:43.694Z,17
2019-03-27T17:32:43.706Z,14
2019-03-27T17:37:43.672Z,17
2019-03-27T17:42:43.630Z,21
2019-03-27T17:47:43.662Z,20
2019-03-27T17:52:43.612Z,17
2019-03-27T17:57:43.627Z,18
2019-03-27T18:02:43.632Z,17
2019-03-27T18:07:43.577Z,18
2019-03-27T18:12:43.609Z,19
2019-03-27T18:17:43.702Z,18
2019-03-27T18:22:43.604Z,19
2019-03-27T18:27:43.588Z,19
2019-03-27T18:32:43.631Z,16
2019-03-27T18:37:43.562Z,16
2019-03-27T18:42:43.569Z,14
2019-03-27T18:47:43.601Z,16
2019-03-27T18:52:43.594Z,14
2019-03-27T19:19:43.448Z,9
2019-03-27T19:24:43.452Z,12
2019-03-27T19:29:45.209Z,9
2019-03-27T19:34:43.403Z,9
2019-03-27T19:39:43.418Z,11
2019-03-27T19:44:43.458Z,11
2019-03-27T19:49:43.414Z,11
2019-03-27T19:54:43.385Z,11
2019-03-27T19:59:43.392Z,8
2019-03-27T20:04:43.373Z,11
2019-03-27T20:09:43.353Z,11
2019-03-27T20:14:43.456Z,10
2019-03-27T20:19:43.355Z,11
2019-03-27T20:24:43.448Z,11
2019-03-27T20:29:46.738Z,11
2019-03-27T20:34:43.375Z,11
2019-03-27T20:39:43.383Z,12
2019-03-27T20:44:43.344Z,10
2019-03-27T20:49:43.328Z,11
2019-03-27T20:54:55.452Z,10
2019-03-27T20:59:43.340Z,10
2019-03-27T21:04:43.299Z,11
2019-03-27T21:09:43.295Z,11
2019-03-27T21:14:43.335Z,12
2019-03-27T21:19:43.331Z,12
2019-03-27T21:24:43.296Z,16
2019-03-27T21:29:43.311Z,18
2019-03-27T21:34:43.260Z,19
2019-03-27T21:39:43.284Z,18
2019-03-27T21:44:43.272Z,19
2019-03-27T21:49:43.301Z,17
2019-03-27T21:54:43.265Z,17
2019-03-27T21:59:43.365Z,20
2019-03-27T22:04:43.252Z,16
2019-03-27T22:09:43.280Z,16
2019-03-27T22:14:43.226Z,17
2019-03-27T22:19:43.249Z,20
2019-03-27T22:24:43.229Z,17
2019-03-27T22:29:43.194Z,23
2019-03-27T22:34:44.589Z,22
2019-03-27T22:39:43.192Z,21
2019-03-27T22:44:43.226Z,20
2019-03-27T22:49:43.183Z,18
2019-03-27T22:54:43.197Z,21
2019-03-27T22:59:43.149Z,22
2019-03-27T23:04:43.146Z,21
2019-03-27T23:09:43.167Z,18
2019-03-27T23:14:43.161Z,19
2019-03-27T23:19:43.166Z,20
2019-03-27T23:24:43.157Z,19
2019-03-27T23:29:43.134Z,21
2019-03-27T23:34:43.157Z,24
2019-03-27T23:39:43.140Z,26
2019-03-27T23:44:43.140Z,23
2019-03-27T23:49:43.109Z,20
2019-03-27T23:54:43.138Z,18
2019-03-27T23:59:43.314Z,17
